Hancock, MA

8:19 AM EDT on October 31, 2014 (GMT -0400)
Daniels Terrace | Change Station
CLOSE
Current Station
Personal Weather Station
Location: Cheshire, MA
Elevation: 1099 ft
Nearby Weather Stations

Elev 1099 ft 42.56 °N, 73.17 °W | Updated 10 minutes ago

Overcast
Overcast
30.2 °F
Feels Like 30 °F
N
1.6
Wind Variable Wind from NE

Today
High -- | Low -- °F
--% Chance of Precip.
Yesterday
High -- | Low -- °F
Precip. -- in
7:25 AM 5:47 PM
First Quarter, 54% visible
Pressure 30.03 in
Visibility 0.2 miles
Clouds
Windchill 30 °F
Dew Point 30 °F
Humidity 99%
Rainfall 0.00 in
Snow Depth Not available.
UV Not available.
Pollen .10 out of 12
Air Quality Not available.
Flu Activity Not available.
METAR KPSF 311154Z AUTO 00000KT M1/4SM FZFG VV001 M02/M02 A3001 RMK AO2 SLP168 I1000 I6001 T10221022 10006 21022 53003

More Conditions Fewer Conditions

Pressure 30.03 in
Visibility 0.2 miles
Clouds
Windchill 30 °F
Dew Point 30 °F
Humidity 99%
Rainfall 0.00 in
Snow Depth Not available.
UV Not available.
Pollen .10 out of 12
Air Quality Not available.
Flu Activity Not available.
METAR KPSF 311154Z AUTO 00000KT M1/4SM FZFG VV001 M02/M02 A3001 RMK AO2 SLP168 I1000 I6001 T10221022 10006 21022 53003

More Conditions Fewer Conditions

10-Day Weather Forecast

Almanac

Astronomy

Oct. 31, 2014 Rise Set
Actual Time
Civil Twilight
Nautical Twilight
Astronomical Twilight
Moon
Length of Visible Light
Length of Day
Tomorrow will be .
, % of the Moon is Illuminated

Today's Extremes

State Highs State Lows

Community

WunderPhotos

Upload Photos

1,766,589 photos uploaded!

WunderBlogs® & News

Nearby

Air Quality

  Air Quality AQ Index Pollutant
Not available.

Snow Depth

Station Depth Elevation

Earthquake Activity

City Distance Mag. Time & Date
Minimum magnitude displayed is 2.5.

Coastal Water Temperatures

Place Temperature

Nearby Weather Stations